Deva — A8OK3 — position and weather

sailwx.info

Track history (hours):
 
Tides and Currents Weather Stations Pressure Air Temp Water Temp Dewpoint Dewpoint Depression Visibility Wind Speed Wind Dir Waves Ship Positions

Deva

Last reported at 2018-Feb-17 12:59 UTC. Time now 2018-Feb-20 02:13 UTC.
Position N 23°19' E 117°43'.

Length 259 m; draft 11 m.

Type: Ship (hazmat cat A). MMSI: 636013644.

Date/timePositionNaut miles runAvg speedWind from/ knotsBaromVisibWave heightAir tempDewpointWater temp
2018-Feb-17 12:59N 23°19' E 117°43'613.2
2018-Feb-17 12:30N 23°23' E 117°48'713.1
2018-Feb-17 11:59N 23°27' E 117°54'713.3
2018-Feb-17 11:28N 23°32' E 117°60'2913.3
2018-Feb-17 09:15N 23°52' E 118°23'314.0
2018-Feb-17 09:01N 23°54' E 118°26'914.0
2018-Feb-17 08:23N 23°60' E 118°33'513.9
2018-Feb-17 08:00N 24°03' E 118°38'814.5
2018-Feb-17 07:29N 24°08' E 118°44'814.4
2018-Feb-17 06:56N 24°13' E 118°51'  
2018-Feb-12 05:21N 31°07' E 122°16'512.2
2018-Feb-12 04:58N 31°10' E 122°12'611.3
2018-Feb-12 04:27N 31°13' E 122°06'611.8
2018-Feb-12 03:59N 31°15' E 121°60'612.9
2018-Feb-12 03:30N 31°16' E 121°53'613.0
2018-Feb-12 03:00N 31°18' E 121°46'6 0.8
2018-Feb-11 18:57N 31°20' E 121°39'0 0.0
2018-Feb-11 17:46N 31°20' E 121°39'0 0.0
2018-Feb-11 17:29N 31°20' E 121°39'0 0.0
2018-Feb-11 16:41N 31°20' E 121°39'0 0.0
2018-Feb-11 16:30N 31°20' E 121°39'0 0.1
2018-Feb-11 15:47N 31°20' E 121°39'0 0.4
2018-Feb-11 14:48N 31°21' E 121°40'1 3.3
2018-Feb-11 14:30N 31°21' E 121°41'4 8.7
2018-Feb-11 14:00N 31°19' E 121°45'4 8.4
2018-Feb-11 13:30N 31°17' E 121°50'4 8.8
2018-Feb-11 13:01N 31°16' E 121°55'510.0
2018-Feb-11 12:30N 31°15' E 122°00'510.4
2018-Feb-11 12:01N 31°14' E 122°06'510.4
2018-Feb-11 11:30N 31°10' E 122°11'5 9.9
2018-Feb-11 11:00N 31°08' E 122°16'510.1
2018-Feb-11 10:30N 31°06' E 122°22'610.7
2018-Feb-11 09:59N 31°10' E 122°26'1 1.7
2018-Feb-11 09:30N 31°11' E 122°27'0 0.1
2018-Feb-11 09:00N 31°11' E 122°27'0 0.1
2018-Feb-11 08:31N 31°11' E 122°27'0 0.0
2018-Feb-11 07:57N 31°11' E 122°27'12 0.4
2018-Feb-10 01:00N 31°14' E 122°40'0 0.0
2018-Feb-09 23:39N 31°14' E 122°40'0 0.2
2018-Feb-09 23:27N 31°14' E 122°40'2 2.7
2018-Feb-09 22:31N 31°17' E 122°39'  
Track history (hours):
 
Tides and Currents Weather Stations Pressure Air Temp Water Temp Dewpoint Dewpoint Depression Visibility Wind Speed Wind Dir Waves Ship Positions

Deva

Last reported at 2018-Feb-17 12:59 UTC. Time now 2018-Feb-20 02:13 UTC.
Position N 23°19' E 117°43'.

Length 259 m; draft 11 m.

Type: Ship (hazmat cat A). MMSI: 636013644.

Date/timePositionNaut miles runAvg speedWind from/ knotsBaromVisibWave heightAir tempDewpointWater temp
2018-Feb-17 12:59N 23°19' E 117°43'613.2
2018-Feb-17 12:30N 23°23' E 117°48'713.1
2018-Feb-17 11:59N 23°27' E 117°54'713.3
2018-Feb-17 11:28N 23°32' E 117°60'2913.3
2018-Feb-17 09:15N 23°52' E 118°23'314.0
2018-Feb-17 09:01N 23°54' E 118°26'914.0
2018-Feb-17 08:23N 23°60' E 118°33'513.9
2018-Feb-17 08:00N 24°03' E 118°38'814.5
2018-Feb-17 07:29N 24°08' E 118°44'814.4
2018-Feb-17 06:56N 24°13' E 118°51'  
2018-Feb-12 05:21N 31°07' E 122°16'512.2
2018-Feb-12 04:58N 31°10' E 122°12'611.3
2018-Feb-12 04:27N 31°13' E 122°06'611.8
2018-Feb-12 03:59N 31°15' E 121°60'612.9
2018-Feb-12 03:30N 31°16' E 121°53'613.0
2018-Feb-12 03:00N 31°18' E 121°46'6 0.8
2018-Feb-11 18:57N 31°20' E 121°39'0 0.0
2018-Feb-11 17:46N 31°20' E 121°39'0 0.0
2018-Feb-11 17:29N 31°20' E 121°39'0 0.0
2018-Feb-11 16:41N 31°20' E 121°39'0 0.0
2018-Feb-11 16:30N 31°20' E 121°39'0 0.1
2018-Feb-11 15:47N 31°20' E 121°39'0 0.4
2018-Feb-11 14:48N 31°21' E 121°40'1 3.3
2018-Feb-11 14:30N 31°21' E 121°41'4 8.7
2018-Feb-11 14:00N 31°19' E 121°45'4 8.4
2018-Feb-11 13:30N 31°17' E 121°50'4 8.8
2018-Feb-11 13:01N 31°16' E 121°55'510.0
2018-Feb-11 12:30N 31°15' E 122°00'510.4
2018-Feb-11 12:01N 31°14' E 122°06'510.4
2018-Feb-11 11:30N 31°10' E 122°11'5 9.9
2018-Feb-11 11:00N 31°08' E 122°16'510.1
2018-Feb-11 10:30N 31°06' E 122°22'610.7
2018-Feb-11 09:59N 31°10' E 122°26'1 1.7
2018-Feb-11 09:30N 31°11' E 122°27'0 0.1
2018-Feb-11 09:00N 31°11' E 122°27'0 0.1
2018-Feb-11 08:31N 31°11' E 122°27'0 0.0
2018-Feb-11 07:57N 31°11' E 122°27'12 0.4
2018-Feb-10 01:00N 31°14' E 122°40'0 0.0
2018-Feb-09 23:39N 31°14' E 122°40'0 0.2
2018-Feb-09 23:27N 31°14' E 122°40'2 2.7
2018-Feb-09 22:31N 31°17' E 122°39'  

Dump ship's entire track history